KEKS

Ennis - Big Sky Airport

Ennis, Montana, USA
KEKS 141751Z 1418/1518 19018G30KT P6SM BKN110 FM150300 17011G23KT P6SM OVC090 WS020/20045KT FM151100 20011G25KT P6SM OVC060 WS020/24045KT FM151300 22013G22KT P6SM BKN090 WS020/24040KT
Issued Valid From Valid To
Dec-14 @ 17:51 UTC
(4 hours ago)
Dec-14 @ 18:00 UTC
(4 hours ago)
Dec-15 @ 18:00 UTC
(in 20 hours)
Dec-14 @ 18:00 to Dec-15 @ 03:00
KEKS 141751Z 1418/1518 19018G30KT P6SM BKN110
Wind Visibility Clouds
190° at 18 knots
 Gusting to 30 knots
Greater than 6 miles
  • Broken at 11,000' AGL
From Dec-15 @ 03:00 to Dec-15 @ 11:00
FM150300 17011G23KT P6SM OVC090 WS020/20045KT
Wind Visibility Clouds
170° at 11 knots
 Gusting to 23 knots
 Wind shear 2,000' AGL from 200° at 45 knots
Greater than 6 miles
  • Overcast at 9,000' AGL
From Dec-15 @ 11:00 to Dec-15 @ 13:00
FM151100 20011G25KT P6SM OVC060 WS020/24045KT
Wind Visibility Clouds
200° at 11 knots
 Gusting to 25 knots
 Wind shear 2,000' AGL from 240° at 45 knots
Greater than 6 miles
  • Overcast at 6,000' AGL
From Dec-15 @ 13:00 to Dec-15 @ 18:00
FM151300 22013G22KT P6SM BKN090 WS020/24040KT
Wind Visibility Clouds
220° at 13 knots
 Gusting to 22 knots
 Wind shear 2,000' AGL from 240° at 40 knots
Greater than 6 miles
  • Broken at 9,000' AGL
KEKS 141751Z 1418/1518 19018G30KT P6SM BKN110 FM150300 17011G23KT P6SM OVC090 WS020/20045KT FM151100 20011G25KT P6SM OVC060 WS020/24045KT FM151300 22013G22KT P6SM BKN090 WS020/24040KT
Issued Dec-14 @ 17:51 UTC
(4 hours ago)
Valid From Dec-14 @ 18:00 UTC
(4 hours ago)
Valid To Dec-15 @ 18:00 UTC
(in 20 hours)
Dec-14 @ 18:00 - Dec-15 @ 03:00
Wind Visibility
190° at 18 knots
 Gusting to 30 knots
Greater than 6 miles
Clouds
  • Broken at 11,000' AGL
From Dec-15 @ 03:00 - Dec-15 @ 11:00
Wind Visibility
170° at 11 knots
 Gusting to 23 knots
Greater than 6 miles
Clouds
  • Overcast at 9,000' AGL
From Dec-15 @ 11:00 - Dec-15 @ 13:00
Wind Visibility
200° at 11 knots
 Gusting to 25 knots
Greater than 6 miles
Clouds
  • Overcast at 6,000' AGL
From Dec-15 @ 13:00 - Dec-15 @ 18:00
Wind Visibility
220° at 13 knots
 Gusting to 22 knots
Greater than 6 miles
Clouds
  • Broken at 9,000' AGL